createdAt,value
2022-10-31T00:02:08.581Z,18.70
2022-10-31T00:04:39.235Z,19.67
2022-10-31T00:07:09.605Z,19.97
2022-10-31T00:09:39.897Z,19.77
2022-10-31T00:12:10.275Z,19.25
2022-10-31T00:14:42.139Z,19.77
2022-10-31T00:19:42.397Z,19.42
2022-10-31T00:22:12.588Z,19.15
2022-10-31T00:24:43.418Z,19.70
2022-10-31T00:27:13.584Z,19.00
2022-10-31T00:29:45.328Z,19.45
2022-10-31T00:32:15.790Z,18.77
2022-10-31T00:34:46.178Z,18.73
2022-10-31T00:37:16.666Z,20.55
2022-10-31T00:39:50.287Z,19.20
2022-10-31T00:42:20.425Z,18.33
2022-10-31T00:44:52.187Z,18.27
2022-10-31T00:47:25.015Z,17.15
2022-10-31T00:49:55.306Z,19.70
2022-10-31T00:52:25.546Z,18.25
2022-10-31T00:54:55.846Z,17.63
2022-10-31T00:57:26.017Z,19.15
2022-10-31T00:59:58.016Z,18.50
2022-10-31T01:04:58.717Z,17.98
2022-10-31T01:07:28.872Z,17.92
2022-10-31T01:09:59.388Z,19.50
2022-10-31T01:12:30.150Z,18.70
2022-10-31T01:15:02.629Z,17.00
2022-10-31T01:17:33.654Z,17.50
2022-10-31T01:20:04.674Z,18.13
2022-10-31T01:22:36.816Z,19.10
2022-10-31T01:25:08.635Z,18.90
2022-10-31T01:30:13.789Z,20.42
2022-10-31T01:32:43.859Z,17.25
2022-10-31T01:35:14.158Z,19.52
2022-10-31T01:37:44.150Z,19.17
2022-10-31T01:40:14.599Z,20.77
2022-10-31T01:42:44.779Z,19.40
2022-10-31T01:45:18.010Z,19.80
2022-10-31T01:47:50.027Z,18.70
2022-10-31T01:50:31.238Z,19.75
2022-10-31T01:53:03.109Z,18.50
2022-10-31T01:55:38.088Z,20.40
2022-10-31T01:58:12.701Z,19.73
2022-10-31T02:00:49.780Z,20.05
2022-10-31T02:03:21.470Z,20.08
2022-10-31T02:05:53.210Z,19.98
2022-10-31T02:08:30.101Z,21.70
2022-10-31T02:11:03.490Z,20.48
2022-10-31T02:13:33.809Z,22.60
2022-10-31T02:16:05.861Z,20.70
2022-10-31T02:18:37.218Z,19.70
2022-10-31T02:21:18.128Z,19.50
2022-10-31T02:24:24.437Z,20.40
2022-10-31T02:27:10.737Z,20.70
2022-10-31T02:30:09.839Z,19.63
2022-10-31T02:33:08.849Z,19.70
2022-10-31T02:35:51.402Z,20.20
2022-10-31T02:38:31.269Z,19.83
2022-10-31T02:41:10.319Z,21.23
2022-10-31T02:43:55.509Z,20.52
2022-10-31T02:46:33.869Z,20.88
2022-10-31T02:49:10.880Z,22.15
2022-10-31T02:51:43.128Z,20.55
2022-10-31T02:54:26.929Z,21.20
2022-10-31T02:57:01.890Z,22.23
2022-10-31T02:59:35.588Z,18.25
2022-10-31T03:02:20.448Z,20.02
2022-10-31T03:05:21.879Z,19.50
2022-10-31T03:08:02.617Z,20.38
2022-10-31T03:10:43.466Z,22.65
2022-10-31T03:16:08.299Z,20.60
2022-10-31T03:18:43.768Z,19.55
2022-10-31T03:21:20.291Z,20.02
2022-10-31T03:23:52.139Z,20.85
2022-10-31T03:26:26.722Z,21.42
2022-10-31T03:29:02.280Z,19.77
2022-10-31T03:31:36.331Z,22.00
2022-10-31T03:34:08.892Z,22.40
2022-10-31T03:36:43.079Z,23.92
2022-10-31T03:39:17.221Z,25.42
2022-10-31T03:41:51.119Z,25.45
2022-10-31T03:44:24.940Z,25.80
2022-10-31T03:47:03.297Z,29.10
2022-10-31T03:49:35.401Z,36.15
2022-10-31T03:52:15.330Z,48.22
2022-10-31T03:54:47.828Z,51.90
2022-10-31T03:57:25.881Z,49.28
2022-10-31T04:00:02.839Z,47.60
2022-10-31T04:02:38.082Z,45.22
2022-10-31T04:05:10.960Z,36.85
2022-10-31T04:07:47.839Z,34.03
2022-10-31T04:10:19.679Z,28.33
2022-10-31T04:12:56.276Z,32.78
2022-10-31T04:15:31.020Z,30.65
2022-10-31T04:18:04.891Z,34.85
2022-10-31T04:20:37.050Z,31.00
2022-10-31T04:23:14.778Z,30.83
2022-10-31T04:25:46.880Z,28.75
2022-10-31T04:30:53.132Z,32.28
2022-10-31T04:33:23.589Z,28.58
2022-10-31T04:35:54.470Z,29.02
2022-10-31T04:38:26.191Z,29.55
2022-10-31T04:43:45.209Z,29.83
2022-10-31T04:46:17.669Z,27.38
2022-10-31T04:48:48.034Z,27.83
2022-10-31T04:51:19.167Z,28.65
2022-10-31T04:53:51.069Z,30.98
2022-10-31T04:56:44.647Z,25.88
2022-10-31T04:59:21.502Z,26.55
2022-10-31T05:01:57.452Z,26.27
2022-10-31T05:04:40.361Z,32.08
2022-10-31T05:07:11.169Z,30.25
2022-10-31T05:09:42.959Z,30.27
2022-10-31T05:12:13.233Z,25.88
2022-10-31T05:15:03.970Z,29.05
2022-10-31T05:17:53.473Z,24.27
2022-10-31T05:20:47.678Z,27.10
2022-10-31T05:23:30.608Z,26.17
2022-10-31T05:26:02.360Z,33.58
2022-10-31T05:28:32.549Z,27.63
2022-10-31T05:31:03.422Z,26.95
2022-10-31T05:33:34.628Z,29.48
2022-10-31T05:36:43.628Z,25.75
2022-10-31T05:39:20.818Z,33.83
2022-10-31T05:41:55.408Z,28.45
2022-10-31T05:44:29.619Z,30.67
2022-10-31T05:47:26.920Z,30.35
2022-10-31T05:50:15.752Z,31.83
2022-10-31T05:52:57.100Z,31.58
2022-10-31T05:55:38.128Z,29.13
2022-10-31T05:58:23.976Z,27.73
2022-10-31T06:01:03.618Z,34.10
2022-10-31T06:03:34.330Z,35.42
2022-10-31T06:06:07.029Z,32.60
2022-10-31T06:08:41.209Z,32.05
2022-10-31T06:11:17.450Z,34.20
2022-10-31T06:14:15.804Z,35.25
2022-10-31T06:16:54.590Z,31.30
2022-10-31T06:19:47.500Z,33.22
2022-10-31T06:22:23.269Z,31.52
2022-10-31T06:24:54.033Z,34.88
2022-10-31T06:27:37.742Z,31.70
2022-10-31T06:30:17.007Z,32.10
2022-10-31T06:32:48.868Z,32.47
2022-10-31T06:35:19.789Z,31.73
2022-10-31T06:37:55.238Z,33.22
2022-10-31T06:40:39.270Z,32.08
2022-10-31T06:43:29.790Z,29.60
2022-10-31T06:46:21.909Z,29.48
2022-10-31T06:49:15.527Z,34.47
2022-10-31T06:51:53.619Z,38.80
2022-10-31T06:54:23.789Z,38.40
2022-10-31T06:56:54.109Z,32.65
2022-10-31T06:59:25.488Z,31.67
2022-10-31T07:02:11.705Z,33.97
2022-10-31T07:04:43.709Z,33.38
2022-10-31T07:07:17.520Z,34.78
2022-10-31T07:09:48.958Z,34.70
2022-10-31T07:12:21.721Z,31.55
2022-10-31T07:14:59.479Z,31.98
2022-10-31T07:17:31.979Z,36.10
2022-10-31T07:20:04.097Z,33.88
2022-10-31T07:22:38.489Z,30.27
2022-10-31T07:25:12.047Z,30.85
2022-10-31T07:28:18.058Z,30.15
2022-10-31T07:30:53.669Z,30.33
2022-10-31T07:33:28.312Z,33.83
2022-10-31T07:36:18.580Z,39.45
2022-10-31T07:38:52.248Z,42.92
2022-10-31T07:41:23.450Z,41.42
2022-10-31T07:46:47.968Z,33.40
2022-10-31T07:49:43.139Z,32.05
2022-10-31T07:52:33.731Z,29.55
2022-10-31T07:55:04.880Z,31.73
2022-10-31T07:57:35.669Z,30.38
2022-10-31T08:00:06.950Z,31.10
2022-10-31T08:02:45.385Z,32.33
2022-10-31T08:05:54.405Z,33.20
2022-10-31T08:08:46.515Z,33.10
2022-10-31T08:11:17.856Z,31.83
2022-10-31T08:13:49.340Z,31.02
2022-10-31T08:16:20.428Z,32.60
2022-10-31T08:19:09.290Z,31.15
2022-10-31T08:21:44.491Z,30.60
2022-10-31T08:24:15.351Z,33.10
2022-10-31T08:26:48.394Z,33.42
2022-10-31T08:29:22.775Z,31.05
2022-10-31T08:31:53.690Z,34.38
2022-10-31T08:35:03.723Z,32.90
2022-10-31T08:37:57.260Z,33.50
2022-10-31T08:40:31.926Z,33.28
2022-10-31T08:43:04.549Z,32.08
2022-10-31T08:45:36.441Z,33.45
2022-10-31T08:48:12.490Z,29.85
2022-10-31T08:50:43.460Z,28.17
2022-10-31T08:53:17.612Z,31.13
2022-10-31T08:55:53.100Z,29.30
2022-10-31T08:58:28.790Z,32.63
2022-10-31T09:01:05.129Z,31.90
2022-10-31T09:03:36.040Z,28.30
2022-10-31T09:06:10.071Z,32.38
2022-10-31T09:08:42.711Z,28.90
2022-10-31T09:11:12.858Z,29.45
2022-10-31T09:14:01.970Z,31.95
2022-10-31T09:16:50.590Z,31.10
2022-10-31T09:19:25.880Z,30.38
2022-10-31T09:21:56.619Z,28.98
2022-10-31T09:26:58.925Z,27.33
2022-10-31T09:29:32.137Z,29.65
2022-10-31T09:32:04.231Z,28.88
2022-10-31T09:34:38.267Z,31.60
2022-10-31T09:37:17.929Z,29.17
2022-10-31T09:42:54.151Z,29.23
2022-10-31T09:45:35.071Z,29.67
2022-10-31T09:48:44.230Z,29.17
2022-10-31T09:51:28.769Z,29.73
2022-10-31T09:54:21.241Z,30.85
2022-10-31T09:56:53.657Z,29.45
2022-10-31T09:59:32.707Z,29.52
2022-10-31T10:02:07.667Z,30.98
2022-10-31T10:04:45.897Z,29.30
2022-10-31T10:07:39.597Z,31.10
2022-10-31T10:10:20.386Z,30.00
2022-10-31T10:13:19.354Z,32.22
2022-10-31T10:16:26.383Z,29.13
2022-10-31T10:19:09.178Z,29.23
2022-10-31T10:21:49.178Z,27.40
2022-10-31T10:24:36.608Z,27.77
2022-10-31T10:27:22.332Z,28.08
2022-10-31T10:30:03.592Z,26.90
2022-10-31T10:32:40.752Z,27.80
2022-10-31T10:35:22.217Z,29.00
2022-10-31T10:37:55.411Z,25.30
2022-10-31T10:40:29.243Z,25.75
2022-10-31T10:43:24.746Z,29.33
2022-10-31T10:46:32.810Z,25.33
2022-10-31T10:49:19.051Z,29.40
2022-10-31T10:55:07.439Z,27.80
2022-10-31T10:57:55.546Z,26.88
2022-10-31T11:00:27.500Z,28.70
2022-10-31T11:02:59.969Z,28.15
2022-10-31T11:05:38.171Z,26.77
2022-10-31T11:08:10.620Z,28.05
2022-10-31T11:10:41.409Z,27.57
2022-10-31T11:13:25.574Z,25.08
2022-10-31T11:16:03.329Z,25.38
2022-10-31T11:18:37.907Z,25.05
2022-10-31T11:21:08.660Z,25.17
2022-10-31T11:23:39.904Z,29.67
2022-10-31T11:26:22.421Z,28.17
2022-10-31T11:29:05.159Z,24.80
2022-10-31T11:31:39.606Z,27.17
2022-10-31T11:34:22.272Z,23.88
2022-10-31T11:36:52.862Z,21.95
2022-10-31T11:39:26.700Z,21.92
2022-10-31T11:42:07.698Z,22.00
2022-10-31T11:44:47.559Z,20.98
2022-10-31T11:47:20.629Z,21.00
2022-10-31T11:49:53.459Z,20.90
2022-10-31T11:52:31.092Z,21.38
2022-10-31T11:55:04.660Z,19.80
2022-10-31T11:57:45.866Z,20.10
2022-10-31T12:00:26.039Z,20.38
2022-10-31T12:03:15.311Z,18.63
2022-10-31T12:05:48.739Z,19.90
2022-10-31T12:08:20.366Z,19.58
2022-10-31T12:11:05.622Z,19.55
2022-10-31T12:13:40.886Z,18.65
2022-10-31T12:16:18.732Z,18.15
2022-10-31T12:19:01.295Z,18.88
2022-10-31T12:21:54.276Z,18.10
2022-10-31T12:25:07.549Z,17.08
2022-10-31T12:27:58.900Z,16.75
2022-10-31T12:30:37.458Z,18.33
2022-10-31T12:33:29.153Z,18.75
2022-10-31T12:36:15.331Z,18.23
2022-10-31T12:39:23.990Z,18.73
2022-10-31T12:41:58.690Z,18.00
2022-10-31T12:44:50.809Z,19.35
2022-10-31T12:47:56.598Z,17.50
2022-10-31T12:50:37.649Z,17.10
2022-10-31T12:53:21.982Z,17.60
2022-10-31T12:56:03.088Z,17.42
2022-10-31T12:58:38.241Z,18.20
2022-10-31T13:01:15.106Z,18.65
2022-10-31T13:03:51.479Z,18.23
2022-10-31T13:06:26.949Z,18.20
2022-10-31T13:09:00.851Z,18.77
2022-10-31T13:11:38.578Z,19.13
2022-10-31T13:14:15.091Z,19.42
2022-10-31T13:16:49.440Z,18.80
2022-10-31T13:19:24.441Z,18.55
2022-10-31T13:22:03.355Z,21.05
2022-10-31T13:24:39.029Z,19.58
2022-10-31T13:27:21.729Z,19.00
2022-10-31T13:30:03.582Z,20.20
2022-10-31T13:32:44.104Z,20.20
2022-10-31T13:35:22.235Z,18.73
2022-10-31T13:37:59.555Z,18.90
2022-10-31T13:40:40.547Z,20.08
2022-10-31T13:43:22.323Z,19.05
2022-10-31T13:48:44.088Z,19.35
2022-10-31T13:51:14.917Z,18.58
2022-10-31T13:54:00.989Z,17.92
2022-10-31T13:56:35.051Z,18.70
2022-10-31T13:59:26.616Z,17.75
2022-10-31T14:02:02.533Z,18.15
2022-10-31T14:04:40.737Z,19.33
2022-10-31T14:07:13.922Z,20.38
2022-10-31T14:09:59.092Z,20.95
2022-10-31T14:12:34.403Z,21.08
2022-10-31T14:15:16.984Z,23.15
2022-10-31T14:17:52.250Z,23.20
2022-10-31T14:20:43.223Z,24.10
2022-10-31T14:23:44.053Z,23.67
2022-10-31T14:26:35.655Z,24.65
2022-10-31T14:29:27.469Z,22.60
2022-10-31T14:32:12.521Z,23.60
2022-10-31T14:34:45.314Z,22.85
2022-10-31T14:37:28.112Z,23.38
2022-10-31T14:40:21.679Z,23.27
2022-10-31T14:43:07.372Z,21.17
2022-10-31T14:45:47.444Z,20.98
2022-10-31T14:48:36.964Z,21.02
2022-10-31T14:51:16.222Z,23.08
2022-10-31T14:53:51.373Z,21.25
2022-10-31T14:56:27.205Z,19.27
2022-10-31T14:59:00.475Z,18.77
2022-10-31T15:01:32.904Z,21.30
2022-10-31T15:04:23.236Z,19.15
2022-10-31T15:07:02.613Z,20.42
2022-10-31T15:09:34.851Z,20.35
2022-10-31T15:12:24.112Z,21.45
2022-10-31T15:14:55.384Z,20.70
2022-10-31T15:17:26.903Z,23.23
2022-10-31T15:20:01.374Z,21.67
2022-10-31T15:22:34.302Z,22.00
2022-10-31T15:27:36.742Z,23.95
2022-10-31T15:30:19.215Z,27.58
2022-10-31T15:32:57.550Z,37.72
2022-10-31T15:35:31.846Z,26.27
2022-10-31T15:38:03.050Z,24.40
2022-10-31T15:40:34.268Z,23.33
2022-10-31T15:43:08.113Z,22.98
2022-10-31T15:45:38.663Z,24.70
2022-10-31T15:48:19.453Z,23.40
2022-10-31T15:50:54.744Z,25.85
2022-10-31T15:53:29.168Z,25.05
2022-10-31T15:56:03.397Z,24.40
2022-10-31T15:58:35.355Z,24.73
2022-10-31T16:01:08.220Z,24.98
2022-10-31T16:03:38.576Z,25.25
2022-10-31T16:06:23.877Z,28.42
2022-10-31T16:08:54.377Z,28.75
2022-10-31T16:11:30.484Z,30.15
2022-10-31T16:14:03.298Z,29.55
2022-10-31T16:16:36.387Z,26.55
2022-10-31T16:19:16.945Z,24.90
2022-10-31T16:21:51.476Z,24.97
2022-10-31T16:24:25.875Z,23.88
2022-10-31T16:27:05.745Z,22.98
2022-10-31T16:29:45.218Z,24.90
2022-10-31T16:32:30.485Z,24.80
2022-10-31T16:35:19.526Z,26.20
2022-10-31T16:37:51.507Z,26.48
2022-10-31T16:42:52.851Z,24.15
2022-10-31T16:45:24.539Z,29.27
2022-10-31T16:47:55.355Z,29.27
2022-10-31T16:50:28.214Z,29.42
2022-10-31T16:53:13.291Z,27.45
2022-10-31T16:55:48.239Z,27.55
2022-10-31T16:58:25.256Z,29.80
2022-10-31T17:00:56.202Z,30.52
2022-10-31T17:03:35.188Z,29.58
2022-10-31T17:06:05.320Z,32.22
2022-10-31T17:11:11.225Z,36.55
2022-10-31T17:13:42.091Z,34.85
2022-10-31T17:16:14.789Z,35.10
2022-10-31T17:18:48.146Z,34.90
2022-10-31T17:21:25.597Z,38.72
2022-10-31T17:23:57.989Z,42.72
2022-10-31T17:26:28.115Z,39.05
2022-10-31T17:29:00.356Z,40.08
2022-10-31T17:31:32.478Z,37.28
2022-10-31T17:34:04.287Z,37.35
2022-10-31T17:39:10.426Z,36.07
2022-10-31T17:41:40.566Z,35.38
2022-10-31T17:44:13.070Z,34.65
2022-10-31T17:46:43.676Z,34.95
2022-10-31T17:49:14.775Z,35.33
2022-10-31T17:51:45.054Z,36.88
2022-10-31T17:54:23.283Z,32.22
2022-10-31T17:56:59.032Z,34.50
2022-10-31T17:59:31.099Z,30.83
2022-10-31T18:02:01.977Z,30.83
2022-10-31T18:04:33.506Z,28.77
2022-10-31T18:07:03.668Z,27.97
2022-10-31T18:09:35.781Z,30.58
2022-10-31T18:12:06.564Z,29.35
2022-10-31T18:14:37.117Z,29.40
2022-10-31T18:17:07.246Z,28.35
2022-10-31T18:19:38.196Z,27.65
2022-10-31T18:22:08.854Z,29.33
2022-10-31T18:24:41.053Z,29.50
2022-10-31T18:27:11.173Z,27.35
2022-10-31T18:29:41.465Z,26.77
2022-10-31T18:32:11.517Z,36.22
2022-10-31T18:34:42.057Z,44.33
2022-10-31T18:37:12.300Z,35.65
2022-10-31T18:39:45.736Z,37.33
2022-10-31T18:42:16.086Z,37.22
2022-10-31T18:44:47.099Z,36.30
2022-10-31T18:47:17.968Z,37.58
2022-10-31T18:49:48.613Z,35.47
2022-10-31T18:52:19.205Z,34.33
2022-10-31T18:54:51.296Z,34.03
2022-10-31T18:57:21.419Z,34.38
2022-10-31T18:59:52.834Z,34.67
2022-10-31T19:02:26.420Z,33.97
2022-10-31T19:04:56.916Z,33.70
2022-10-31T19:07:27.527Z,35.70
2022-10-31T19:09:59.763Z,34.65
2022-10-31T19:12:29.827Z,35.20
2022-10-31T19:15:00.495Z,39.00
2022-10-31T19:17:31.300Z,36.30
2022-10-31T19:20:02.114Z,38.60
2022-10-31T19:22:34.152Z,36.17
2022-10-31T19:25:10.507Z,35.45
2022-10-31T19:27:41.458Z,39.53
2022-10-31T19:30:13.845Z,36.42
2022-10-31T19:32:43.886Z,40.92
2022-10-31T19:35:14.297Z,39.88
2022-10-31T19:37:44.450Z,37.97
2022-10-31T19:40:17.597Z,37.08
2022-10-31T19:42:47.798Z,37.38
2022-10-31T19:45:18.469Z,38.53
2022-10-31T19:47:51.592Z,36.28
2022-10-31T19:50:22.535Z,32.78
2022-10-31T19:53:02.748Z,34.38
2022-10-31T19:55:36.224Z,31.63
2022-10-31T19:58:06.307Z,32.55
2022-10-31T20:00:38.932Z,36.03
2022-10-31T20:03:10.085Z,31.17
2022-10-31T20:05:42.984Z,31.70
2022-10-31T20:08:17.147Z,29.00
2022-10-31T20:11:00.811Z,31.40
2022-10-31T20:13:32.985Z,32.70
2022-10-31T20:16:05.925Z,34.38
2022-10-31T20:18:37.477Z,33.63
2022-10-31T20:21:09.870Z,35.15
2022-10-31T20:23:41.306Z,34.35
2022-10-31T20:28:46.757Z,33.13
2022-10-31T20:31:19.335Z,32.10
2022-10-31T20:33:50.972Z,35.08
2022-10-31T20:36:23.275Z,33.08
2022-10-31T20:38:54.416Z,32.53
2022-10-31T20:43:59.245Z,29.80
2022-10-31T20:46:30.957Z,32.90
2022-10-31T20:51:41.024Z,32.38
2022-10-31T20:54:17.872Z,30.95
2022-10-31T20:56:50.330Z,36.45
2022-10-31T20:59:20.848Z,38.92
2022-10-31T21:04:36.964Z,34.10
2022-10-31T21:07:07.395Z,33.58
2022-10-31T21:09:40.558Z,33.67
2022-10-31T21:12:15.390Z,30.52
2022-10-31T21:17:19.467Z,30.90
2022-10-31T21:19:50.595Z,32.53
2022-10-31T21:22:26.369Z,32.60
2022-10-31T21:24:58.177Z,31.08
2022-10-31T21:27:32.230Z,31.88
2022-10-31T21:30:03.275Z,30.92
2022-10-31T21:32:37.886Z,28.80
2022-10-31T21:35:09.583Z,29.52
2022-10-31T21:37:39.995Z,30.17
2022-10-31T21:40:11.327Z,32.25
2022-10-31T21:42:46.566Z,31.98
2022-10-31T21:45:16.911Z,31.52
2022-10-31T21:47:48.773Z,35.17
2022-10-31T21:50:20.894Z,32.88
2022-10-31T21:52:52.839Z,34.47
2022-10-31T21:57:54.026Z,32.20
2022-10-31T22:00:25.109Z,37.30
2022-10-31T22:05:28.326Z,35.80
2022-10-31T22:07:59.583Z,40.38
2022-10-31T22:10:30.054Z,44.75
2022-10-31T22:13:02.595Z,44.77
2022-10-31T22:15:33.129Z,42.38
2022-10-31T22:18:07.013Z,46.13
2022-10-31T22:20:37.045Z,46.13
2022-10-31T22:23:09.777Z,38.78
2022-10-31T22:25:39.944Z,38.67
2022-10-31T22:28:13.886Z,37.78
2022-10-31T22:30:44.524Z,37.13
2022-10-31T22:33:14.977Z,40.42
2022-10-31T22:35:45.236Z,35.33
2022-10-31T22:38:15.577Z,36.53
2022-10-31T22:40:45.657Z,40.78
2022-10-31T22:43:17.545Z,41.60
2022-10-31T22:46:00.706Z,40.90
2022-10-31T22:48:31.689Z,41.20
2022-10-31T22:51:07.184Z,39.88
2022-10-31T22:53:39.048Z,39.15
2022-10-31T22:58:41.544Z,38.90
2022-10-31T23:01:13.504Z,38.63
2022-10-31T23:03:44.826Z,35.60
2022-10-31T23:06:17.167Z,34.83
2022-10-31T23:08:48.705Z,33.60
2022-10-31T23:11:21.376Z,31.48
2022-10-31T23:14:09.323Z,31.15
2022-10-31T23:16:42.958Z,34.22
2022-10-31T23:19:15.016Z,31.27
2022-10-31T23:22:02.786Z,31.75
2022-10-31T23:24:37.025Z,25.35
2022-10-31T23:27:09.959Z,23.98
2022-10-31T23:29:47.337Z,18.73
2022-10-31T23:32:22.536Z,19.67
2022-10-31T23:34:54.762Z,18.95
2022-10-31T23:37:26.756Z,18.95
2022-10-31T23:39:57.429Z,18.60
2022-10-31T23:42:28.766Z,18.63
2022-10-31T23:45:00.607Z,18.17
2022-10-31T23:50:02.594Z,18.88
2022-10-31T23:52:32.685Z,17.77
2022-10-31T23:55:03.085Z,17.50
2022-10-31T23:57:33.076Z,16.40
